OSSIPEE R NR EFFINGHAM: From 08/05/2019 17:00 to 08/20/2019 00:00

Date STAGE [FT] OBSERVED DAM ELEVATION FLOW [CFS] PRECIPITATION INCREMENT [IN] AIR TEMPERATURE [DEGF] PRECIPITATION TOTAL [IN]
08/19/2019 18:00 -- 406.72 -- -- 74.8 --
08/19/2019 17:00 -- 406.72 -- -- 83.2 --
08/19/2019 16:00 1.40 406.73 70.7 0.00 84.2 --
08/19/2019 15:00 1.54 406.71 88.2 0.00 84.6 --
08/19/2019 14:00 1.69 406.69 110.7 0.00 83.4 --
08/19/2019 13:00 1.83 406.68 135.5 0.00 82.0 --
08/19/2019 12:00 1.83 406.68 135.5 0.00 79.4 --
08/19/2019 11:00 1.83 406.68 135.5 0.00 76.0 --
08/19/2019 10:00 1.83 406.68 135.5 0.01 73.3 --
08/19/2019 09:00 1.83 406.66 135.5 0.00 70.5 --
08/19/2019 08:00 1.83 406.66 135.5 0.00 68.2 --
08/19/2019 07:00 1.83 406.66 135.5 0.00 67.6 --
08/19/2019 06:00 1.83 406.66 135.5 0.00 67.9 --
08/19/2019 05:00 1.83 406.65 135.5 0.00 67.8 --
08/19/2019 04:00 1.83 406.65 135.5 0.00 67.7 --
08/19/2019 03:00 1.83 406.65 135.5 0.00 67.6 --
08/19/2019 02:00 1.83 406.64 135.5 0.00 67.6 --
08/19/2019 01:00 1.83 406.63 135.5 0.00 69.0 --
08/19/2019 00:00 1.83 406.63 135.5 0.09 69.8 --
08/18/2019 23:00 1.83 406.62 135.5 0.00 70.5 --
08/18/2019 22:00 1.83 406.63 135.5 0.00 72.2 --
08/18/2019 21:00 1.83 406.63 135.5 0.00 74.3 --
08/18/2019 20:00 1.83 406.63 135.5 0.00 76.9 --
08/18/2019 19:00 1.83 406.63 135.5 0.00 81.6 --
08/18/2019 18:00 1.83 406.63 135.5 0.00 82.5 --
08/18/2019 17:00 1.83 406.62 135.5 0.00 82.3 --
08/18/2019 16:00 2.11 406.61 191.3 0.00 81.2 --
08/18/2019 15:00 2.39 406.59 252.2 0.00 78.2 --
08/18/2019 14:00 2.67 406.54 326.1 0.00 75.4 --
08/18/2019 13:00 2.95 406.43 414.8 0.00 71.6 --
08/18/2019 12:00 3.24 406.02 506.0 0.01 70.8 --
08/18/2019 11:00 3.52 406.11 606.2 0.00 68.5 --
08/18/2019 10:00 3.80 406.09 715.1 0.00 67.2 --
08/18/2019 09:00 4.08 406.11 833.0 0.00 66.4 --
08/18/2019 08:00 4.36 406.19 955.9 0.00 64.8 --
08/18/2019 07:00 4.37 406.10 960.4 0.00 64.9 --
08/18/2019 06:00 4.37 406.16 960.4 0.00 65.6 --
08/18/2019 05:00 4.37 406.20 961.5 0.00 66.5 --
08/18/2019 04:00 4.38 406.19 962.6 0.00 66.3 --
08/18/2019 03:00 4.38 406.26 963.8 0.00 66.6 --
08/18/2019 02:00 4.38 406.25 964.9 0.00 66.4 --
08/18/2019 01:00 4.38 406.23 966.0 0.00 66.4 --
08/18/2019 00:00 4.38 406.25 967.2 0.00 66.9 --
08/17/2019 23:00 4.39 406.27 968.3 0.00 67.1 --
08/17/2019 22:00 4.39 406.21 969.5 0.11 67.8 --
08/17/2019 21:00 4.39 406.24 970.6 0.10 68.7 --
08/17/2019 20:00 4.39 406.27 971.7 0.00 69.7 --
08/17/2019 19:00 4.40 406.30 972.9 0.00 70.1 --
08/17/2019 18:00 4.40 406.36 974.0 0.00 69.4 --
08/17/2019 17:00 4.26 406.35 913.0 0.00 69.9 --
08/17/2019 16:00 4.13 406.37 853.9 0.00 69.2 --
08/17/2019 15:00 3.99 406.42 796.6 0.00 69.1 --
08/17/2019 14:00 3.86 406.40 739.4 0.00 69.0 --
08/17/2019 13:00 3.72 406.45 683.9 0.00 69.1 --
08/17/2019 12:00 1.64 406.50 103.0 0.00 67.9 --
08/17/2019 11:00 3.39 406.90 560.3 0.00 67.2 --
08/17/2019 10:00 3.39 406.87 560.3 0.00 67.3 --
08/17/2019 09:00 3.39 406.84 561.3 0.00 65.8 --
08/17/2019 08:00 3.40 406.81 562.2 0.00 64.6 --
08/17/2019 07:00 3.40 406.78 563.1 0.00 64.0 --
08/17/2019 06:00 3.40 406.78 564.0 0.00 63.9 --
08/17/2019 05:00 3.40 406.78 564.0 0.01 63.7 --
08/17/2019 04:00 3.40 406.79 564.0 0.01 63.9 --
08/17/2019 03:00 3.40 406.79 564.0 0.00 64.6 --
08/17/2019 02:00 3.40 406.80 564.0 0.00 64.8 --
08/17/2019 01:00 3.40 406.81 564.0 0.00 64.6 --
08/17/2019 00:00 3.40 406.80 564.0 0.00 64.8 --
08/16/2019 23:00 3.41 406.81 567.5 0.00 65.7 --
08/16/2019 22:00 3.41 406.82 567.5 0.00 67.0 --
08/16/2019 21:00 3.41 406.83 567.5 0.00 68.5 --
08/16/2019 20:00 3.41 406.83 567.5 0.00 71.1 --
08/16/2019 19:00 3.40 406.83 564.0 0.00 74.9 --
08/16/2019 18:00 3.39 406.84 560.3 0.00 77.1 --
08/16/2019 17:00 3.38 406.86 556.7 0.00 77.2 --
08/16/2019 16:00 3.37 406.87 553.1 0.00 75.7 --
08/16/2019 15:00 3.36 406.86 549.4 0.00 74.7 --
08/16/2019 14:00 3.35 406.87 545.8 0.00 72.6 --
08/16/2019 13:00 3.34 406.88 542.2 0.00 70.9 --
08/16/2019 12:00 3.33 406.88 538.7 0.00 67.7 --
08/16/2019 11:00 3.32 406.90 535.1 0.00 66.5 --
08/16/2019 10:00 3.32 406.94 535.1 0.00 64.4 --
08/16/2019 09:00 3.16 407.04 481.6 0.00 63.5 --
08/16/2019 08:00 3.00 407.03 431.0 0.00 62.7 --
08/16/2019 07:00 2.85 407.03 379.2 0.00 62.4 --
08/16/2019 06:00 2.69 407.02 330.0 0.03 62.8 --
08/16/2019 05:00 2.53 407.01 285.5 0.12 62.8 --
08/16/2019 04:00 2.37 406.97 247.0 0.07 63.5 --
08/16/2019 03:00 2.21 406.96 212.4 0.28 64.7 --
08/16/2019 02:00 2.05 406.96 180.0 0.03 64.5 --
08/16/2019 01:00 1.90 406.96 148.0 0.00 64.8 --
08/16/2019 00:00 1.74 406.95 119.1 0.00 65.1 --
08/15/2019 23:00 1.58 406.95 93.4 0.00 66.0 --
08/15/2019 22:00 1.42 406.95 72.9 0.00 67.4 --
08/15/2019 21:00 1.42 406.95 72.9 0.00 70.5 --
08/15/2019 20:00 1.42 406.95 72.9 0.00 73.9 --
08/15/2019 19:00 1.42 406.95 72.9 0.00 78.0 --
08/15/2019 18:00 1.42 406.96 72.9 0.00 78.2 --
08/15/2019 17:00 1.42 406.95 72.9 0.00 77.4 --
08/15/2019 16:00 1.42 406.94 72.9 0.00 75.8 --
08/15/2019 15:00 1.42 406.95 72.9 0.00 75.4 --
08/15/2019 14:00 1.55 406.94 89.7 0.00 76.0 --
08/15/2019 13:00 1.69 406.95 110.7 0.00 74.2 --
08/15/2019 12:00 1.82 406.94 133.7 0.00 73.3 --
08/15/2019 11:00 1.95 406.95 160.0 0.00 70.9 --
08/15/2019 10:00 2.09 406.92 186.4 0.00 67.9 --
08/15/2019 09:00 2.22 407.18 214.1 0.00 62.3 --
08/15/2019 08:00 2.35 407.06 243.1 0.00 57.9 --
08/15/2019 07:00 2.49 406.94 274.7 0.00 57.3 --
08/15/2019 06:00 2.62 406.82 310.7 0.00 58.7 --
08/15/2019 05:00 2.75 406.82 350.3 0.00 60.5 --
08/15/2019 04:00 2.89 406.83 392.6 0.00 62.5 --
08/15/2019 03:00 3.02 406.83 436.3 0.00 61.4 --
08/15/2019 02:00 3.15 406.85 478.9 0.00 61.1 --
08/15/2019 01:00 3.29 406.86 523.4 0.00 62.6 --
08/15/2019 00:00 3.42 406.86 571.1 0.00 63.5 --
08/14/2019 23:00 3.42 406.87 571.1 0.00 65.3 --
08/14/2019 22:00 3.42 406.88 571.1 0.00 67.7 --
08/14/2019 21:00 3.42 406.89 571.1 0.00 70.5 --
08/14/2019 20:00 3.42 406.90 571.1 0.00 74.5 --
08/14/2019 19:00 3.42 406.90 571.1 0.00 76.1 --
08/14/2019 18:00 3.42 406.92 571.1 0.00 78.4 --
08/14/2019 17:00 3.42 406.92 572.9 0.00 78.5 --
08/14/2019 16:00 3.43 406.94 574.7 0.00 77.6 --
08/14/2019 15:00 3.43 406.93 574.7 0.00 76.3 --
08/14/2019 14:00 3.43 406.94 574.7 0.00 76.1 --
08/14/2019 13:00 3.43 406.96 574.7 0.00 74.2 --
08/14/2019 12:00 3.17 406.97 484.3 0.00 73.8 --
08/14/2019 11:00 2.91 406.99 400.2 0.00 73.2 --
08/14/2019 10:00 2.65 407.01 319.3 0.00 68.9 --
08/14/2019 09:00 2.65 407.02 319.3 0.00 64.9 --
08/14/2019 08:00 2.65 407.04 319.3 0.00 59.0 --
08/14/2019 07:00 2.65 407.06 319.3 0.00 58.0 --
08/14/2019 06:00 2.65 407.07 319.3 0.00 59.0 --
08/14/2019 05:00 2.65 407.09 319.3 0.00 60.9 --
08/14/2019 04:00 2.65 407.09 319.3 0.00 63.6 --
08/14/2019 03:00 2.65 407.10 319.3 0.00 63.7 --
08/14/2019 02:00 2.65 407.10 319.3 0.00 65.0 --
08/14/2019 01:00 2.65 407.10 319.3 0.00 66.9 --
08/14/2019 00:00 2.65 407.10 319.3 0.00 68.0 --
08/13/2019 23:00 2.65 407.11 319.3 0.00 69.0 --
08/13/2019 22:00 2.66 407.11 322.2 0.00 70.4 --
08/13/2019 21:00 2.66 407.12 322.2 0.00 72.3 --
08/13/2019 20:00 2.66 407.12 322.2 0.00 75.0 --
08/13/2019 19:00 2.66 407.12 322.2 0.00 76.5 --
08/13/2019 18:00 2.65 407.13 319.3 0.00 78.4 --
08/13/2019 17:00 2.63 407.13 313.5 0.00 79.1 --
08/13/2019 16:00 2.56 407.17 294.0 0.00 80.0 --
08/13/2019 15:00 2.33 407.18 238.3 0.00 80.7 --
08/13/2019 14:00 2.11 407.17 190.0 0.00 77.0 --
08/13/2019 13:00 1.88 407.17 144.6 0.00 75.4 --
08/13/2019 12:00 1.65 407.17 104.7 0.00 73.9 --
08/13/2019 11:00 1.65 407.17 104.7 0.00 69.1 --
08/13/2019 10:00 1.66 407.17 106.3 0.00 67.3 --
08/13/2019 09:00 1.65 407.16 104.7 0.00 65.9 --
08/13/2019 08:00 1.65 407.16 104.7 0.03 64.4 --
08/13/2019 07:00 1.65 407.16 104.7 0.00 64.9 --
08/13/2019 06:00 1.65 407.16 104.7 0.00 62.7 --
08/13/2019 05:00 1.65 407.16 104.7 0.00 63.0 --
08/13/2019 04:00 1.65 407.15 104.7 0.00 65.4 --
08/13/2019 03:00 1.65 407.16 104.7 0.00 65.4 --
08/13/2019 02:00 1.65 407.15 104.7 0.00 65.0 --
08/13/2019 01:00 1.65 407.15 104.7 0.00 64.9 --
08/13/2019 00:00 1.65 407.16 104.7 0.00 65.3 --
08/12/2019 23:00 1.65 407.16 104.8 0.00 66.3 --
08/12/2019 22:00 1.65 407.15 105.0 0.00 69.1 --
08/12/2019 21:00 1.65 407.15 105.2 0.00 72.9 --
08/12/2019 20:00 1.65 407.17 105.3 0.00 77.4 --
08/12/2019 19:00 1.66 407.17 105.5 0.00 80.0 --
08/12/2019 18:00 1.66 407.18 105.6 0.00 80.9 --
08/12/2019 17:00 1.66 407.17 105.8 0.00 81.5 --
08/12/2019 16:00 1.66 407.18 106.0 0.00 82.3 --
08/12/2019 15:00 1.66 407.17 106.1 0.00 82.2 --
08/12/2019 14:00 1.66 407.16 106.3 0.00 81.0 --
08/12/2019 13:00 1.66 407.15 106.3 0.00 79.3 --
08/12/2019 12:00 1.66 407.15 106.3 0.00 78.0 --
08/12/2019 11:00 1.66 407.15 106.3 0.00 76.4 --
08/12/2019 10:00 1.66 407.15 106.3 0.00 71.7 --
08/12/2019 09:00 1.66 407.15 106.3 0.00 66.0 --
08/12/2019 08:00 1.66 407.14 106.3 0.00 60.0 --
08/12/2019 07:00 1.66 407.14 106.3 0.00 59.3 --
08/12/2019 06:00 1.66 407.14 106.3 0.00 58.0 --
08/12/2019 05:00 1.66 407.14 106.3 0.00 59.0 --
08/12/2019 04:00 1.66 407.13 106.3 0.00 59.7 --
08/12/2019 03:00 1.66 407.13 106.3 0.00 60.2 --
08/12/2019 02:00 1.66 407.14 106.3 0.00 60.4 --
08/12/2019 01:00 1.66 407.13 106.3 0.00 61.8 --
08/12/2019 00:00 1.66 407.13 106.3 0.00 63.9 --
08/11/2019 23:00 1.66 407.13 106.3 0.00 65.1 --
08/11/2019 22:00 1.66 407.15 105.8 0.00 68.6 --
08/11/2019 21:00 1.65 407.15 105.2 0.00 71.1 --
08/11/2019 20:00 1.65 407.14 104.7 0.00 71.8 --
08/11/2019 19:00 1.65 407.15 104.7 0.00 73.5 --
08/11/2019 18:00 1.64 407.16 103.0 0.00 75.3 --
08/11/2019 17:00 1.63 407.16 101.4 0.00 74.9 --
08/11/2019 16:00 1.56 407.17 91.1 0.00 74.6 --
08/11/2019 15:00 1.50 407.15 81.6 0.00 74.0 --
08/11/2019 14:00 1.43 407.14 74.0 0.00 73.4 --
08/11/2019 13:00 1.43 407.16 74.0 0.00 71.7 --
08/11/2019 12:00 1.43 407.15 74.0 0.00 73.0 --
08/11/2019 11:00 1.43 407.26 74.0 0.00 69.0 --
08/11/2019 10:00 1.43 407.36 74.0 0.00 66.1 --
08/11/2019 09:00 1.43 407.13 74.0 0.00 60.3 --
08/11/2019 08:00 1.43 407.12 74.0 0.00 52.4 --
08/11/2019 07:00 1.43 407.12 74.0 0.00 50.0 --
08/11/2019 06:00 1.43 407.12 74.0 0.00 51.0 --
08/11/2019 05:00 1.43 407.11 74.0 0.00 51.4 --
08/11/2019 04:00 1.43 407.11 74.0 0.00 52.1 --
08/11/2019 03:00 1.43 407.11 74.0 0.00 53.2 --
08/11/2019 02:00 1.43 407.11 74.0 0.00 54.4 --
08/11/2019 01:00 1.43 407.11 74.0 0.00 54.3 --
08/11/2019 00:00 1.43 407.12 74.0 0.00 55.1 --
08/10/2019 23:00 1.43 407.12 74.0 0.00 57.3 --
08/10/2019 22:00 1.43 407.12 74.0 0.00 60.2 --
08/10/2019 21:00 1.43 407.12 74.0 0.00 62.5 --
08/10/2019 20:00 1.43 407.11 74.0 0.00 63.4 --
08/10/2019 19:00 1.43 407.13 74.0 0.00 67.4 --
08/10/2019 18:00 1.43 407.16 74.0 0.00 65.3 --
08/10/2019 17:00 1.43 407.14 74.0 0.00 71.7 --
08/10/2019 16:00 1.43 407.14 74.0 0.01 71.8 --
08/10/2019 15:00 1.43 407.16 74.0 0.00 73.6 --
08/10/2019 14:00 1.43 407.14 74.0 0.00 72.3 --
08/10/2019 13:00 1.43 407.15 74.0 0.00 72.2 --
08/10/2019 12:00 1.43 407.14 74.0 0.00 71.9 --
08/10/2019 11:00 1.43 407.11 74.0 0.00 70.6 --
08/10/2019 10:00 1.43 407.11 74.0 0.00 66.9 --
08/10/2019 09:00 1.43 407.10 74.0 0.00 61.6 --
08/10/2019 08:00 1.43 407.10 74.0 0.00 56.1 --
08/10/2019 07:00 1.43 407.09 74.0 0.00 55.9 --
08/10/2019 06:00 1.43 407.09 74.0 0.00 54.7 --
08/10/2019 05:00 1.43 407.08 74.0 0.00 56.1 --
08/10/2019 04:00 1.43 407.08 74.0 0.00 57.0 --
08/10/2019 03:00 1.43 407.08 74.0 0.00 57.9 --
08/10/2019 02:00 1.43 407.08 74.0 0.00 60.2 --
08/10/2019 01:00 1.43 407.07 74.0 0.00 61.6 --
08/10/2019 00:00 1.43 407.08 74.0 0.00 64.9 --
08/09/2019 23:00 1.43 407.07 74.0 0.00 66.5 --
08/09/2019 22:00 1.43 407.08 74.0 0.00 68.1 --
08/09/2019 21:00 1.43 407.09 74.0 0.00 71.6 --
08/09/2019 20:00 1.43 407.09 74.0 0.00 75.9 --
08/09/2019 19:00 1.43 407.09 74.0 0.00 79.0 --
08/09/2019 18:00 1.43 407.10 74.0 0.00 79.8 --
08/09/2019 17:00 1.43 407.09 74.0 0.00 79.8 --
08/09/2019 16:00 1.43 407.08 74.0 0.00 79.3 --
08/09/2019 15:00 1.43 407.08 74.0 0.00 78.7 --
08/09/2019 14:00 1.43 407.08 74.0 0.00 78.0 --
08/09/2019 13:00 1.43 407.07 74.0 0.00 77.5 --
08/09/2019 12:00 1.43 407.07 74.0 0.00 76.5 --
08/09/2019 11:00 1.43 407.06 74.0 0.00 75.5 --
08/09/2019 10:00 1.43 407.04 74.0 0.00 72.0 --
08/09/2019 09:00 1.42 407.04 72.9 0.00 67.9 --
08/09/2019 08:00 1.42 407.04 72.9 0.00 64.2 --
08/09/2019 07:00 1.42 407.03 72.9 0.00 61.3 --
08/09/2019 06:00 1.42 407.03 72.9 0.00 61.0 --
08/09/2019 05:00 1.42 407.03 72.9 0.00 62.4 --
08/09/2019 04:00 1.42 407.03 72.9 0.00 63.7 --
08/09/2019 03:00 1.42 407.02 72.9 0.00 64.6 --
08/09/2019 02:00 1.42 407.01 72.9 0.00 65.1 --
08/09/2019 01:00 1.42 407.02 72.9 0.00 65.5 --
08/09/2019 00:00 1.42 407.02 72.9 0.00 66.8 --
08/08/2019 23:00 1.42 407.01 72.9 0.00 67.2 --
08/08/2019 22:00 1.42 407.01 72.9 0.00 69.0 --
08/08/2019 21:00 1.42 407.01 72.9 0.00 72.8 --
08/08/2019 20:00 1.42 407.02 72.9 0.00 75.4 --
08/08/2019 19:00 1.42 407.02 72.9 0.00 80.4 --
08/08/2019 18:00 1.42 407.01 72.9 0.00 79.6 --
08/08/2019 17:00 1.42 407.00 72.9 0.00 78.9 --
08/08/2019 16:00 1.43 406.99 74.0 0.00 74.2 --
08/08/2019 15:00 1.43 406.99 74.0 0.00 74.0 --
08/08/2019 14:00 1.42 406.98 72.9 0.01 73.4 --
08/08/2019 13:00 1.43 406.97 74.0 0.21 75.6 --
08/08/2019 12:00 1.44 406.98 75.1 0.01 75.6 --
08/08/2019 11:00 1.57 406.95 92.1 0.00 73.5 --
08/08/2019 10:00 3.33 406.96 538.7 0.00 69.7 --
08/08/2019 09:00 3.43 406.81 574.7 0.00 68.0 --
08/08/2019 08:00 3.43 406.81 574.7 0.00 67.3 --
08/08/2019 07:00 3.44 406.82 578.3 0.00 67.2 --
08/08/2019 06:00 3.44 406.84 578.3 0.00 67.1 --
08/08/2019 05:00 3.44 406.84 578.3 0.00 67.1 --
08/08/2019 04:00 3.44 406.82 578.3 0.01 67.2 --
08/08/2019 03:00 3.44 406.83 578.3 0.09 67.4 --
08/08/2019 02:00 3.44 406.84 578.3 0.02 67.5 --
08/08/2019 01:00 3.44 406.85 578.3 0.00 68.3 --
08/08/2019 00:00 3.44 406.85 578.3 0.02 68.7 --
08/07/2019 23:00 3.44 406.86 578.3 0.02 68.9 --
08/07/2019 22:00 3.44 406.87 578.3 0.02 69.3 --
08/07/2019 21:00 3.45 406.91 581.9 0.00 70.5 --
08/07/2019 20:00 3.45 406.87 581.9 0.00 71.0 --
08/07/2019 19:00 3.41 406.88 567.5 0.00 72.4 --
08/07/2019 18:00 3.34 406.87 542.2 0.10 79.8 --
08/07/2019 17:00 1.43 407.03 74.0 0.03 80.7 --
08/07/2019 16:00 1.43 407.04 74.0 0.00 80.4 --
08/07/2019 15:00 1.43 407.04 74.0 0.00 79.2 --
08/07/2019 14:00 1.46 407.03 77.4 0.00 77.4 --
08/07/2019 13:00 1.46 407.03 77.4 0.00 76.3 --
08/07/2019 12:00 1.46 407.03 77.4 0.00 74.6 --
08/07/2019 11:00 1.46 407.02 77.4 0.00 73.8 --
08/07/2019 10:00 1.46 407.02 77.4 0.00 69.6 --
08/07/2019 09:00 1.46 407.02 77.4 0.00 68.4 --
08/07/2019 08:00 1.46 407.02 77.4 0.00 66.9 --
08/07/2019 07:00 1.46 407.02 77.4 0.00 65.2 --
08/07/2019 06:00 1.46 407.01 77.4 0.00 65.2 --
08/07/2019 05:00 1.46 407.02 77.4 0.00 65.3 --
08/07/2019 04:00 1.46 407.01 77.4 0.00 65.9 --
08/07/2019 03:00 1.46 407.01 77.4 0.00 66.8 --
08/07/2019 02:00 1.46 407.01 77.4 0.00 66.7 --
08/07/2019 01:00 1.46 407.01 77.4 0.00 67.7 --
08/07/2019 00:00 1.46 407.00 77.4 0.00 68.4 --
08/06/2019 23:00 1.46 407.00 77.4 0.00 69.5 --
08/06/2019 22:00 1.46 407.00 77.4 0.00 70.8 --
08/06/2019 21:00 1.46 407.00 77.4 0.00 73.3 --
08/06/2019 20:00 1.46 407.00 77.4 0.00 76.3 --
08/06/2019 19:00 1.46 406.99 77.4 0.00 78.1 --
08/06/2019 18:00 1.46 406.99 77.4 0.00 78.8 --
08/06/2019 17:00 1.46 406.99 77.4 0.00 81.1 --
08/06/2019 16:00 1.46 407.00 77.4 0.00 80.8 --
08/06/2019 15:00 1.46 407.01 77.4 0.00 81.4 --
08/06/2019 14:00 1.46 407.00 77.4 0.00 81.6 --
08/06/2019 13:00 1.46 406.98 77.4 0.00 79.4 --
08/06/2019 12:00 1.46 406.99 77.4 0.00 78.1 --
08/06/2019 11:00 1.45 406.99 76.2 0.00 72.2 --
08/06/2019 10:00 1.45 406.99 76.2 0.00 66.3 --
08/06/2019 09:00 1.45 406.99 76.2 0.00 58.4 --
08/06/2019 08:00 1.45 406.98 76.2 0.00 55.3 --
08/06/2019 07:00 1.45 406.98 76.2 0.00 52.8 --
08/06/2019 06:00 1.45 406.98 76.2 0.00 53.3 --
08/06/2019 05:00 1.45 406.98 76.2 0.00 53.7 --
08/06/2019 04:00 1.45 406.97 76.2 0.00 54.4 --
08/06/2019 03:00 1.45 406.97 76.2 0.00 55.1 --
08/06/2019 02:00 1.45 406.97 76.2 0.00 56.4 --
08/06/2019 01:00 1.45 406.97 76.2 0.00 58.1 --
08/06/2019 00:00 1.45 406.97 76.2 0.00 59.3 --
08/05/2019 23:00 1.45 406.97 76.2 0.00 62.0 --
08/05/2019 22:00 1.45 406.97 76.2 0.00 65.8 --
08/05/2019 21:00 1.45 406.97 76.2 0.00 71.8 --
08/05/2019 20:00 1.45 406.98 76.2 0.00 76.6 --
08/05/2019 19:00 1.45 406.98 76.2 0.00 78.5 --
08/05/2019 18:00 -- -- -- -- -- --
08/05/2019 17:00 -- -- -- -- -- --